• Join FlightAware (Why Join?)
  • Login
  • US Flag 
01:25AM EDT


 

Airport Tracker/Info


-or-


 

Live Flight TrackerFlight Track Log ✈ AFL1106 ✈ 25-Dec-2013 ✈ UUEE / SVO - URKK / KRR

Flight Track Log - Related Links

Times and Time Zones

All times are in EST time to prevent confusion due to time zone crossing. See the AFL1106 flight status page for this flight to view local times or setup timezone preferences in your user account.

Time Position Orientation Groundspeed Altitude Reporting Facility
EST Latitude Longitude Course Direction KTS MPH feet Rate Location/Type
09:48AM 55.8479 37.4151 173° South  Level Estimated
09:49AM 55.7530 37.4346 173° South  Level Estimated
09:50AM 55.6580 37.4540 173° South  Level Estimated
09:51AM 55.5631 37.4733 173° South  Level Estimated
09:52AM 55.4682 37.4925 173° South  Level Estimated
09:53AM 55.3733 37.5116 173° South  Level Estimated
09:54AM 55.2783 37.5307 173° South  Level Estimated
09:55AM 55.1834 37.5496 174° South  Level Estimated
09:56AM 55.0885 37.5684 174° South  Level Estimated
09:57AM 54.9935 37.5872 174° South  Level Estimated
09:58AM 54.8986 37.6059 174° South  Level Estimated
09:59AM 54.8036 37.6244 174° South  Level Estimated
10:00AM 54.7087 37.6429 174° South  Level Estimated
10:01AM 54.6137 37.6613 174° South  Level Estimated
10:02AM 54.5264 37.6782 174° South  Level Estimated
10:03AM 54.4390 37.6950 174° South  Level Estimated
10:04AM 54.3517 37.7117 174° South  Level Estimated
10:05AM 54.2643 37.7283 174° South  Level Estimated
10:06AM 54.1769 37.7449 174° South  Level Estimated
10:07AM 54.0896 37.7614 174° South  Level Estimated
10:08AM 54.0022 37.7778 174° South  Level Estimated
10:09AM 53.9148 37.7942 174° South  Level Estimated
10:10AM 53.8274 37.8105 174° South  Level Estimated
10:11AM 53.7401 37.8267 174° South  Level Estimated
10:12AM 53.6527 37.8429 174° South  Level Estimated
10:13AM 53.5653 37.8590 174° South  Level Estimated
10:14AM 53.4779 37.8750 174° South  Level Estimated
10:15AM 53.3905 37.8909 174° South  Level Estimated
10:16AM 53.3031 37.9068 174° South  Level Estimated
10:17AM 53.2157 37.9227 174° South  Level Estimated
10:18AM 53.1283 37.9384 174° South  Level Estimated
10:19AM 53.0410 37.9541 174° South  Level Estimated
10:20AM 52.9535 37.9698 174° South  Level Estimated
10:20AM 52.7894 38.8056 174° South 435 501 33,000  Level FlightAware ADS-B
10:21AM 52.7072 38.8316 169° South 434 499 33,000  Level FlightAware ADS-B
10:21AM 52.6214 38.8587 169° South 434 499 33,000  Level FlightAware ADS-B
10:22AM 52.5507 38.8810 169° South 433 498 33,000  Level FlightAware ADS-B
10:23AM 52.4640 38.9082 169° South 433 498 33,000  Level FlightAware ADS-B
10:23AM 52.3900 38.9324 169° South 432 497 33,000  Level FlightAware ADS-B
10:24AM 52.3112 38.9710 163° South 433 498 33,000  Level FlightAware ADS-B
10:25AM 52.2357 39.0113 162° South 432 497 33,000  Level FlightAware ADS-B
10:25AM 52.1626 39.0496 162° South 432 497 33,000  Level FlightAware ADS-B
10:29AM 51.7095 39.2879 179° South 430 495 33,000  Level FlightAware ADS-B
10:30AM 51.6321 39.3325 160° South 431 496 33,000  Level FlightAware ADS-B
10:31AM 51.5550 39.3763 161° South 430 495 33,000  Level FlightAware ADS-B
10:31AM 51.4813 39.4177 161° South 429 494 33,000  Level FlightAware ADS-B
10:32AM 51.4079 39.4590 161° South 427 491 33,000  Level FlightAware ADS-B
10:33AM 51.3316 39.5016 161° South 427 491 33,000  Level FlightAware ADS-B
10:33AM 51.2621 39.5403 161° South 427 491 33,000  Level FlightAware ADS-B
10:34AM 51.1988 39.5757 161° South 428 493 33,000  Level FlightAware ADS-B
10:35AM 51.1143 39.6226 161° South 430 495 33,000  Level FlightAware ADS-B
10:35AM 51.0328 39.6674 161° South 431 496 33,000  Level FlightAware ADS-B
10:36AM 50.9599 39.7074 161° South 431 496 33,000  Level FlightAware ADS-B
10:39AM 50.7406 39.6852 184° South  Level Estimated
10:40AM 50.6529 39.6763 184° South  Level Estimated
10:41AM 50.5652 39.6675 184° South  Level Estimated
10:42AM 50.4775 39.6588 184° South  Level Estimated
10:43AM 50.3897 39.6500 184° South  Level Estimated
10:44AM 50.3020 39.6413 184° South  Level Estimated
10:45AM 50.2143 39.6327 184° South  Level Estimated
10:46AM 50.1265 39.6240 184° South  Level Estimated
10:47AM 50.0388 39.6154 184° South  Level Estimated
10:48AM 49.9511 39.6068 184° South  Level Estimated
10:49AM 49.8633 39.5983 184° South  Level Estimated
10:50AM 49.7756 39.5898 184° South  Level Estimated
10:51AM 49.6879 39.5813 184° South  Level Estimated
10:52AM 49.6002 39.5728 184° South  Level Estimated
10:53AM 49.5124 39.5644 184° South  Level Estimated
10:54AM 49.4247 39.5560 184° South  Level Estimated
10:55AM 49.3370 39.5477 184° South  Level Estimated
10:56AM 49.2492 39.5393 184° South  Level Estimated
10:57AM 49.1615 39.5310 184° South  Level Estimated
10:58AM 49.0738 39.5227 184° South  Level Estimated
10:59AM 48.9860 39.5145 184° South  Level Estimated
11:00AM 48.8983 39.5063 184° South  Level Estimated
11:01AM 48.8105 39.4981 184° South  Level Estimated
11:02AM 48.7228 39.4899 184° South  Level Estimated
11:03AM 48.6351 39.4818 184° South  Level Estimated
11:04AM 48.5473 39.4737 183° South  Level Estimated
11:05AM 48.4596 39.4656 183° South  Level Estimated
11:06AM 48.3718 39.4576 183° South  Level Estimated
11:07AM 48.2841 39.4495 183° South  Level Estimated
11:08AM 48.1964 39.4416 183° South  Level Estimated
11:09AM 48.1086 39.4336 183° South  Level Estimated
11:10AM 48.0209 39.4257 183° South  Level Estimated
11:11AM 47.9331 39.4177 183° South  Level Estimated
11:12AM 47.8454 39.4099 183° South  Level Estimated
11:13AM 47.7577 39.4020 183° South  Level Estimated
11:14AM 47.6699 39.3942 183° South  Level Estimated
11:15AM 47.5822 39.3864 183° South  Level Estimated
11:16AM 47.4944 39.3786 183° South  Level Estimated
11:17AM 47.4067 39.3708 183° South  Level Estimated
11:18AM 47.3189 39.3631 183° South  Level Estimated
11:19AM 47.2312 39.3554 183° South  Level Estimated
11:20AM 47.1434 39.3477 183° South  Level Estimated
11:21AM 47.0557 39.3401 183° South  Level Estimated
11:22AM 46.9679 39.3325 183° South  Level Estimated
11:23AM 46.8802 39.3248 183° South  Level Estimated
11:24AM 46.7924 39.3173 183° South  Level Estimated
11:25AM 46.7047 39.3097 183° South  Level Estimated
11:26AM 46.6169 39.3022 183° South  Level Estimated
11:27AM 46.5292 39.2947 183° South  Level Estimated
11:28AM 46.4414 39.2872 183° South  Level Estimated
11:29AM 46.3537 39.2798 183° South  Level Estimated
11:30AM 46.2659 39.2723 183° South  Level Estimated
11:31AM 46.1782 39.2649 183° South  Level Estimated
11:32AM 46.0904 39.2575 183° South  Level Estimated
11:33AM 46.0027 39.2502 183° South  Level Estimated
11:34AM 45.9149 39.2429 183° South  Level Estimated